createdAt,value
2018-07-27T00:00:32.570Z,45.30
2018-07-27T00:03:00.967Z,46.20
2018-07-27T00:05:29.319Z,47.10
2018-07-27T00:07:57.882Z,47.00
2018-07-27T00:10:26.242Z,46.60
2018-07-27T00:12:54.656Z,46.40
2018-07-27T00:15:23.014Z,46.70
2018-07-27T00:17:51.382Z,46.60
2018-07-27T00:20:19.754Z,46.70
2018-07-27T00:22:48.097Z,46.90
2018-07-27T00:25:16.482Z,47.20
2018-07-27T00:27:44.849Z,47.30
2018-07-27T00:30:13.205Z,47.30
2018-07-27T00:32:41.605Z,47.10
2018-07-27T00:37:38.051Z,47.80
2018-07-27T00:40:06.422Z,47.90
2018-07-27T00:42:34.769Z,48.10
2018-07-27T00:45:03.157Z,48.10
2018-07-27T00:47:31.493Z,48.30
2018-07-27T00:49:59.884Z,48.30
2018-07-27T00:52:28.237Z,48.40
2018-07-27T00:54:56.586Z,48.60
2018-07-27T00:57:24.937Z,48.90
2018-07-27T00:59:53.295Z,48.70
2018-07-27T01:02:21.690Z,48.90
2018-07-27T01:04:50.154Z,49.10
2018-07-27T01:07:18.525Z,49.20
2018-07-27T01:09:46.987Z,49.20
2018-07-27T01:12:15.349Z,49.30
2018-07-27T01:14:43.761Z,49.40
2018-07-27T01:17:12.188Z,49.20
2018-07-27T01:19:40.574Z,49.10
2018-07-27T01:22:08.945Z,49.50
2018-07-27T01:24:42.515Z,49.30
2018-07-27T01:27:10.966Z,49.30
2018-07-27T01:29:39.383Z,49.50
2018-07-27T01:32:07.766Z,50.20
2018-07-27T01:34:36.169Z,50.80
2018-07-27T01:37:04.751Z,51.30
2018-07-27T01:39:33.134Z,51.50
2018-07-27T01:42:01.570Z,51.20
2018-07-27T01:44:30.030Z,50.70
2018-07-27T01:46:58.406Z,50.90
2018-07-27T01:49:26.826Z,50.70
2018-07-27T01:51:55.208Z,50.60
2018-07-27T01:54:23.628Z,50.60
2018-07-27T01:56:52.026Z,50.70
2018-07-27T01:59:20.432Z,51.20
2018-07-27T02:01:49.013Z,50.60
2018-07-27T02:04:17.413Z,50.40
2018-07-27T02:06:45.799Z,50.10
2018-07-27T02:09:14.267Z,50.00
2018-07-27T02:11:42.684Z,50.00
2018-07-27T02:14:11.055Z,50.00
2018-07-27T02:16:39.462Z,49.60
2018-07-27T02:19:07.883Z,49.50
2018-07-27T02:24:04.369Z,49.90
2018-07-27T02:26:32.752Z,49.70
2018-07-27T02:29:01.143Z,49.90
2018-07-27T02:31:29.559Z,49.70
2018-07-27T02:33:57.949Z,50.10
2018-07-27T02:36:26.354Z,50.00
2018-07-27T02:38:54.734Z,50.10
2018-07-27T02:41:23.147Z,50.10
2018-07-27T02:43:51.654Z,50.50
2018-07-27T02:46:20.042Z,51.40
2018-07-27T02:48:48.394Z,52.30
2018-07-27T02:51:16.795Z,52.80
2018-07-27T02:53:45.171Z,53.90
2018-07-27T02:56:13.561Z,54.70
2018-07-27T02:58:41.902Z,55.60
2018-07-27T03:01:10.306Z,56.10
2018-07-27T03:03:38.658Z,56.50
2018-07-27T03:06:07.070Z,56.90
2018-07-27T03:08:35.430Z,57.40
2018-07-27T03:11:03.860Z,58.00
2018-07-27T03:13:32.213Z,57.20
2018-07-27T03:16:00.603Z,57.00
2018-07-27T03:18:28.980Z,57.20
2018-07-27T03:20:57.394Z,57.40
2018-07-27T03:23:25.778Z,57.50
2018-07-27T03:25:54.158Z,57.50
2018-07-27T03:28:22.533Z,57.60
2018-07-27T03:30:50.922Z,58.30
2018-07-27T03:33:19.271Z,58.20
2018-07-27T03:35:47.678Z,58.10
2018-07-27T03:38:16.114Z,57.90
2018-07-27T03:40:44.515Z,57.50
2018-07-27T03:43:12.930Z,56.90
2018-07-27T03:45:41.302Z,56.40
2018-07-27T03:48:10.333Z,56.00
2018-07-27T03:50:40.516Z,55.40
2018-07-27T03:53:09.516Z,55.30
2018-07-27T03:55:37.886Z,55.10
2018-07-27T03:58:06.298Z,54.60
2018-07-27T04:00:34.677Z,54.40
2018-07-27T04:03:03.119Z,54.10
2018-07-27T04:05:31.484Z,54.10
2018-07-27T04:07:59.910Z,53.80
2018-07-27T04:10:28.302Z,53.80
2018-07-27T04:12:56.687Z,54.10
2018-07-27T04:15:25.070Z,53.80
2018-07-27T04:18:00.780Z,53.80
2018-07-27T04:20:29.775Z,53.50
2018-07-27T04:22:58.397Z,53.40
2018-07-27T04:25:26.821Z,53.30
2018-07-27T04:27:55.217Z,53.30
2018-07-27T04:30:23.610Z,53.80
2018-07-27T04:32:52.050Z,54.10
2018-07-27T04:35:20.762Z,54.10
2018-07-27T04:40:17.438Z,55.30
2018-07-27T04:42:46.813Z,54.90
2018-07-27T04:45:15.265Z,54.90
2018-07-27T04:47:43.668Z,55.40
2018-07-27T04:50:12.019Z,55.40
2018-07-27T04:52:40.466Z,55.50
2018-07-27T04:55:08.896Z,54.90
2018-07-27T04:57:37.292Z,54.90
2018-07-27T05:00:06.586Z,54.60
2018-07-27T05:02:34.981Z,54.60
2018-07-27T05:05:03.496Z,54.40
2018-07-27T05:07:31.887Z,54.00
2018-07-27T05:10:00.407Z,54.30
2018-07-27T05:12:28.786Z,53.60
2018-07-27T05:14:57.143Z,53.20
2018-07-27T05:17:25.566Z,52.90
2018-07-27T05:19:53.925Z,52.40
2018-07-27T05:22:22.410Z,52.00
2018-07-27T05:24:50.923Z,51.90
2018-07-27T05:27:19.327Z,51.60
2018-07-27T05:29:47.719Z,51.30
2018-07-27T05:32:16.139Z,51.00
2018-07-27T05:34:44.541Z,50.90
2018-07-27T05:37:12.950Z,50.90
2018-07-27T05:39:41.332Z,52.20
2018-07-27T05:42:09.772Z,52.10
2018-07-27T05:44:38.162Z,51.80
2018-07-27T05:47:06.860Z,50.30
2018-07-27T05:49:35.204Z,50.40
2018-07-27T05:52:03.672Z,49.60
2018-07-27T05:54:32.121Z,49.00
2018-07-27T05:57:00.482Z,49.40
2018-07-27T05:59:28.972Z,48.70
2018-07-27T06:01:57.365Z,48.60
2018-07-27T06:04:25.778Z,47.90
2018-07-27T06:06:54.184Z,48.40
2018-07-27T06:09:22.685Z,47.30
2018-07-27T06:11:51.153Z,46.80
2018-07-27T06:14:19.634Z,46.60
2018-07-27T06:16:48.139Z,47.10
2018-07-27T06:19:16.568Z,47.30
2018-07-27T06:21:45.014Z,46.10
2018-07-27T06:24:13.445Z,45.90
2018-07-27T06:26:41.878Z,46.40
2018-07-27T06:29:10.418Z,46.10
2018-07-27T06:31:38.763Z,45.80
2018-07-27T06:36:35.426Z,45.50
2018-07-27T06:39:04.067Z,45.90
2018-07-27T06:41:32.458Z,46.10
2018-07-27T06:44:00.932Z,45.90
2018-07-27T06:46:29.316Z,45.80
2018-07-27T06:48:57.733Z,45.90
2018-07-27T06:51:26.184Z,45.10
2018-07-27T06:53:54.630Z,46.30
2018-07-27T06:56:23.392Z,45.50
2018-07-27T06:58:51.879Z,43.90
2018-07-27T07:03:49.097Z,43.30
2018-07-27T07:06:17.490Z,43.30
2018-07-27T07:08:46.106Z,43.10
2018-07-27T07:11:14.510Z,42.90
2018-07-27T07:13:42.904Z,42.50
2018-07-27T07:16:11.403Z,42.30
2018-07-27T07:18:50.999Z,42.00
2018-07-27T07:21:19.514Z,41.90
2018-07-27T07:23:48.009Z,41.80
2018-07-27T07:26:16.455Z,41.40
2018-07-27T07:28:44.978Z,41.00
2018-07-27T07:31:13.433Z,41.00
2018-07-27T07:33:41.825Z,40.80
2018-07-27T07:36:10.310Z,40.50
2018-07-27T07:38:38.675Z,40.30
2018-07-27T07:41:07.128Z,40.00
2018-07-27T07:43:35.855Z,39.90
2018-07-27T07:46:04.259Z,39.80
2018-07-27T07:48:32.751Z,39.90
2018-07-27T07:51:01.567Z,39.80
2018-07-27T07:53:29.942Z,39.50
2018-07-27T07:55:58.577Z,39.30
2018-07-27T07:58:27.591Z,38.80
2018-07-27T08:00:56.931Z,38.70
2018-07-27T08:03:25.379Z,38.20
2018-07-27T08:05:53.881Z,38.20
2018-07-27T08:08:22.467Z,37.60
2018-07-27T08:10:50.962Z,37.60
2018-07-27T08:13:19.379Z,37.50
2018-07-27T08:15:48.107Z,37.40
2018-07-27T08:18:16.523Z,37.00
2018-07-27T08:20:45.409Z,37.20
2018-07-27T08:23:13.829Z,37.60
2018-07-27T08:26:57.230Z,37.50
2018-07-27T08:29:28.078Z,37.40
2018-07-27T08:31:57.188Z,36.90
2018-07-27T08:34:25.612Z,37.10
2018-07-27T08:36:54.179Z,37.20
2018-07-27T08:39:23.984Z,37.00
2018-07-27T08:41:52.587Z,36.90
2018-07-27T08:44:22.331Z,37.10
2018-07-27T08:46:50.824Z,37.30
2018-07-27T08:49:19.418Z,37.90
2018-07-27T08:51:47.901Z,37.20
2018-07-27T08:54:16.362Z,37.60
2018-07-27T08:56:44.786Z,36.60
2018-07-27T08:59:13.354Z,36.40
2018-07-27T09:01:41.852Z,36.30
2018-07-27T09:04:10.311Z,35.90
2018-07-27T09:06:38.920Z,35.80
2018-07-27T09:09:08.792Z,35.80
2018-07-27T09:11:37.218Z,35.70
2018-07-27T09:14:05.940Z,35.50
2018-07-27T09:16:34.343Z,35.40
2018-07-27T09:19:02.844Z,35.30
2018-07-27T09:21:31.371Z,35.00
2018-07-27T09:23:59.797Z,35.20
2018-07-27T09:26:28.294Z,35.10
2018-07-27T09:28:56.693Z,35.00
2018-07-27T09:31:25.157Z,34.90
2018-07-27T09:33:54.130Z,34.90
2018-07-27T09:36:22.610Z,34.90
2018-07-27T09:38:51.022Z,34.70
2018-07-27T09:41:19.481Z,34.80
2018-07-27T09:43:48.042Z,34.80
2018-07-27T09:46:16.626Z,34.90
2018-07-27T09:48:50.963Z,34.90
2018-07-27T09:51:20.127Z,34.80
2018-07-27T09:53:48.600Z,34.40
2018-07-27T09:56:17.411Z,34.10
2018-07-27T09:58:45.857Z,34.00
2018-07-27T10:01:19.991Z,34.40
2018-07-27T10:03:48.394Z,33.30
2018-07-27T10:06:17.096Z,32.60
2018-07-27T10:08:45.489Z,32.60
2018-07-27T10:11:13.970Z,32.30
2018-07-27T10:13:42.386Z,32.70
2018-07-27T10:16:10.818Z,32.20
2018-07-27T10:18:39.218Z,31.90
2018-07-27T10:21:08.132Z,31.50
2018-07-27T10:23:36.587Z,31.50
2018-07-27T10:26:04.987Z,31.90
2018-07-27T10:28:33.427Z,32.00
2018-07-27T10:31:01.855Z,31.20
2018-07-27T10:33:30.318Z,31.50
2018-07-27T10:38:27.162Z,30.50
2018-07-27T10:40:55.621Z,29.70
2018-07-27T10:43:24.354Z,29.80
2018-07-27T10:45:52.763Z,29.20
2018-07-27T10:48:21.259Z,29.00
2018-07-27T10:50:49.780Z,28.90
2018-07-27T10:53:18.221Z,29.10
2018-07-27T10:55:46.598Z,28.40
2018-07-27T10:58:14.975Z,27.90
2018-07-27T11:00:43.346Z,27.90
2018-07-27T11:03:11.905Z,27.90
2018-07-27T11:05:40.602Z,27.40
2018-07-27T11:08:11.842Z,26.50
2018-07-27T11:10:40.206Z,25.50
2018-07-27T11:13:08.642Z,25.00
2018-07-27T11:15:37.032Z,24.00
2018-07-27T11:18:05.524Z,24.20
2018-07-27T11:20:33.891Z,23.70
2018-07-27T11:23:02.291Z,23.30
2018-07-27T11:25:30.740Z,22.60
2018-07-27T11:27:59.245Z,22.30
2018-07-27T11:30:27.671Z,22.10
2018-07-27T11:32:56.077Z,20.90
2018-07-27T11:35:24.501Z,20.80
2018-07-27T11:37:52.934Z,21.40
2018-07-27T11:40:21.605Z,21.90
2018-07-27T11:42:50.157Z,21.00
2018-07-27T11:45:18.807Z,21.10
2018-07-27T11:47:47.545Z,18.10
2018-07-27T11:50:16.013Z,17.10
2018-07-27T11:52:44.459Z,17.10
2018-07-27T11:55:12.890Z,17.40
2018-07-27T11:57:41.290Z,18.10
2018-07-27T12:00:09.765Z,18.00
2018-07-27T12:02:38.258Z,18.00
2018-07-27T12:05:06.696Z,17.70
2018-07-27T12:07:35.095Z,17.90
2018-07-27T12:10:03.575Z,17.80
2018-07-27T12:12:32.084Z,18.10
2018-07-27T12:15:00.573Z,18.80
2018-07-27T12:17:28.923Z,19.40
2018-07-27T12:19:57.347Z,20.20
2018-07-27T12:22:25.739Z,21.80
2018-07-27T12:24:54.227Z,23.60
2018-07-27T12:27:22.640Z,24.00
2018-07-27T12:29:51.094Z,24.10
2018-07-27T12:32:19.617Z,24.10
2018-07-27T12:34:48.007Z,23.40
2018-07-27T12:37:16.415Z,22.60
2018-07-27T12:39:45.022Z,21.50
2018-07-27T12:42:13.414Z,20.80
2018-07-27T12:44:41.828Z,20.20
2018-07-27T12:47:10.291Z,19.00
2018-07-27T12:49:38.730Z,18.30
2018-07-27T12:52:07.213Z,17.90
2018-07-27T12:54:35.683Z,17.70
2018-07-27T12:57:04.116Z,17.50
2018-07-27T13:02:07.329Z,17.70
2018-07-27T13:04:35.810Z,17.20
2018-07-27T13:12:06.983Z,17.60
2018-07-27T13:17:03.806Z,17.20
2018-07-27T13:19:32.213Z,16.50
2018-07-27T13:22:00.632Z,16.40
2018-07-27T13:26:57.477Z,16.60
2018-07-27T13:29:25.869Z,16.20
2018-07-27T13:31:55.436Z,16.10
2018-07-27T13:34:35.163Z,16.10
2018-07-27T13:37:03.995Z,16.20
2018-07-27T13:39:32.936Z,16.10
2018-07-27T13:42:02.540Z,15.80
2018-07-27T13:44:32.304Z,15.80
2018-07-27T13:47:01.130Z,16.20
2018-07-27T13:49:29.597Z,15.80
2018-07-27T13:51:58.737Z,15.40
2018-07-27T13:54:27.928Z,15.30
2018-07-27T13:56:56.315Z,14.80
2018-07-27T13:59:24.793Z,14.50
2018-07-27T14:01:53.435Z,13.90
2018-07-27T14:04:21.904Z,13.90
2018-07-27T14:06:52.721Z,13.90
2018-07-27T14:09:21.187Z,12.90
2018-07-27T14:11:49.614Z,12.80
2018-07-27T14:14:18.025Z,12.90
2018-07-27T14:16:46.468Z,13.00
2018-07-27T14:19:15.803Z,13.00
2018-07-27T14:21:44.452Z,13.40
2018-07-27T14:24:12.822Z,13.90
2018-07-27T14:26:41.281Z,13.50
2018-07-27T14:29:09.773Z,13.40
2018-07-27T14:31:38.172Z,13.20
2018-07-27T14:34:06.932Z,13.60
2018-07-27T14:36:35.443Z,14.90
2018-07-27T14:39:06.281Z,16.30
2018-07-27T14:41:34.682Z,16.20
2018-07-27T14:44:03.433Z,15.40
2018-07-27T14:46:31.952Z,14.70
2018-07-27T14:49:00.369Z,14.10
2018-07-27T14:51:28.975Z,13.70
2018-07-27T14:53:57.571Z,13.20
2018-07-27T14:56:25.978Z,13.00
2018-07-27T14:58:54.369Z,12.90
2018-07-27T15:01:22.811Z,13.20
2018-07-27T15:03:51.236Z,12.50
2018-07-27T15:06:19.774Z,12.60
2018-07-27T15:08:48.210Z,12.30
2018-07-27T15:14:48.612Z,12.30
2018-07-27T15:17:16.998Z,12.10
2018-07-27T15:19:45.467Z,12.20
2018-07-27T15:22:13.851Z,11.90
2018-07-27T15:24:48.765Z,11.70
2018-07-27T15:27:17.130Z,11.80
2018-07-27T15:29:45.596Z,11.70
2018-07-27T15:32:14.058Z,11.70
2018-07-27T15:37:17.178Z,12.20
2018-07-27T15:39:45.591Z,12.40
2018-07-27T15:42:14.078Z,12.50
2018-07-27T15:44:42.482Z,12.90
2018-07-27T15:47:10.915Z,13.50
2018-07-27T15:49:39.366Z,13.90
2018-07-27T15:52:07.771Z,13.60
2018-07-27T15:54:36.253Z,13.30
2018-07-27T15:57:05.056Z,13.40
2018-07-27T15:59:33.417Z,13.70
2018-07-27T16:02:01.860Z,13.10
2018-07-27T16:04:31.334Z,12.70
2018-07-27T16:06:59.733Z,12.50
2018-07-27T16:09:28.114Z,12.90
2018-07-27T16:11:56.641Z,14.10
2018-07-27T16:14:25.121Z,15.10
2018-07-27T16:16:54.194Z,16.70
2018-07-27T16:19:22.582Z,17.30
2018-07-27T16:21:51.026Z,18.10
2018-07-27T16:24:19.486Z,18.70
2018-07-27T16:26:47.980Z,18.90
2018-07-27T16:29:16.384Z,19.10
2018-07-27T16:31:44.762Z,19.50
2018-07-27T16:34:13.114Z,19.60
2018-07-27T16:36:41.534Z,19.80
2018-07-27T16:39:11.037Z,19.20
2018-07-27T16:41:39.402Z,18.20
2018-07-27T16:44:07.801Z,17.90
2018-07-27T16:46:36.230Z,17.40
2018-07-27T16:49:05.476Z,16.90
2018-07-27T16:51:34.833Z,16.70
2018-07-27T16:54:03.823Z,16.20
2018-07-27T16:56:32.317Z,15.70
2018-07-27T16:59:01.520Z,15.60
2018-07-27T17:01:29.986Z,15.20
2018-07-27T17:03:58.666Z,15.10
2018-07-27T17:06:27.137Z,15.00
2018-07-27T17:08:55.642Z,14.80
2018-07-27T17:11:24.123Z,14.60
2018-07-27T17:13:52.519Z,14.50
2018-07-27T17:16:20.943Z,14.20
2018-07-27T17:18:49.421Z,14.10
2018-07-27T17:21:17.824Z,14.00
2018-07-27T17:23:46.211Z,14.30
2018-07-27T17:26:15.321Z,14.40
2018-07-27T17:28:43.749Z,14.30
2018-07-27T17:31:12.295Z,14.40
2018-07-27T17:33:40.767Z,14.70
2018-07-27T17:36:09.177Z,15.10
2018-07-27T17:38:37.615Z,16.00
2018-07-27T17:41:06.377Z,15.90
2018-07-27T17:43:41.139Z,16.10
2018-07-27T17:46:09.537Z,16.20
2018-07-27T17:48:38.004Z,16.40
2018-07-27T17:51:06.440Z,16.50
2018-07-27T17:53:34.833Z,16.80
2018-07-27T17:56:03.230Z,17.10
2018-07-27T17:58:31.625Z,17.30
2018-07-27T18:01:00.064Z,17.70
2018-07-27T18:03:28.487Z,18.10
2018-07-27T18:05:56.951Z,18.50
2018-07-27T18:08:25.395Z,18.60
2018-07-27T18:10:53.839Z,19.00
2018-07-27T18:13:22.390Z,19.20
2018-07-27T18:15:50.771Z,19.40
2018-07-27T18:18:19.214Z,19.70
2018-07-27T18:20:47.613Z,20.10
2018-07-27T18:23:16.053Z,20.50
2018-07-27T18:25:44.433Z,20.90
2018-07-27T18:28:12.830Z,21.90
2018-07-27T18:30:41.207Z,21.60
2018-07-27T18:33:09.619Z,22.20
2018-07-27T18:35:38.006Z,22.40
2018-07-27T18:38:06.704Z,22.80
2018-07-27T18:40:35.105Z,23.10
2018-07-27T18:43:03.574Z,23.50
2018-07-27T18:45:31.980Z,24.00
2018-07-27T18:48:00.514Z,24.60
2018-07-27T18:50:28.921Z,25.00
2018-07-27T18:52:57.354Z,25.50
2018-07-27T18:55:25.999Z,25.90
2018-07-27T19:00:22.554Z,26.70
2018-07-27T19:05:19.116Z,27.70
2018-07-27T19:07:47.511Z,28.50
2018-07-27T19:10:15.924Z,29.10
2018-07-27T19:12:44.302Z,29.60
2018-07-27T19:15:12.722Z,30.00
2018-07-27T19:17:41.143Z,30.50
2018-07-27T19:20:09.611Z,30.90
2018-07-27T19:22:38.024Z,31.90
2018-07-27T19:25:06.550Z,31.70
2018-07-27T19:27:34.930Z,32.00
2018-07-27T19:30:03.359Z,32.50
2018-07-27T19:32:31.717Z,32.80
2018-07-27T19:35:00.176Z,33.50
2018-07-27T19:37:28.546Z,33.40
2018-07-27T19:39:57.010Z,33.60
2018-07-27T19:42:25.402Z,34.00
2018-07-27T19:44:53.823Z,34.30
2018-07-27T19:47:22.401Z,34.50
2018-07-27T19:49:51.187Z,34.90
2018-07-27T19:52:19.578Z,35.10
2018-07-27T19:54:47.996Z,35.60
2018-07-27T19:57:16.371Z,35.70
2018-07-27T19:59:44.807Z,35.90
2018-07-27T20:02:13.237Z,36.10
2018-07-27T20:04:41.622Z,36.40
2018-07-27T20:07:10.034Z,36.60
2018-07-27T20:09:38.431Z,36.90
2018-07-27T20:12:06.808Z,37.20
2018-07-27T20:14:35.275Z,37.50
2018-07-27T20:17:03.692Z,37.80
2018-07-27T20:19:32.207Z,38.00
2018-07-27T20:22:00.588Z,38.30
2018-07-27T20:24:29.023Z,38.60
2018-07-27T20:27:03.498Z,39.00
2018-07-27T20:29:31.893Z,39.30
2018-07-27T20:32:00.408Z,39.60
2018-07-27T20:34:28.803Z,39.50
2018-07-27T20:36:57.211Z,40.10
2018-07-27T20:39:25.650Z,40.30
2018-07-27T20:41:54.082Z,40.40
2018-07-27T20:44:22.574Z,40.70
2018-07-27T20:46:51.001Z,40.80
2018-07-27T20:49:19.397Z,41.00
2018-07-27T20:51:47.791Z,41.20
2018-07-27T20:54:16.253Z,41.50
2018-07-27T20:56:44.692Z,41.70
2018-07-27T20:59:13.076Z,41.80
2018-07-27T21:01:41.594Z,42.20
2018-07-27T21:04:11.024Z,42.30
2018-07-27T21:06:39.479Z,42.00
2018-07-27T21:09:09.094Z,42.50
2018-07-27T21:11:37.560Z,42.70
2018-07-27T21:14:06.210Z,42.80
2018-07-27T21:16:34.713Z,42.80
2018-07-27T21:19:03.102Z,43.00
2018-07-27T21:21:31.547Z,43.10
2018-07-27T21:23:59.902Z,43.30
2018-07-27T21:26:28.595Z,43.40
2018-07-27T21:28:57.134Z,43.70
2018-07-27T21:31:25.527Z,44.00
2018-07-27T21:33:54.408Z,44.10
2018-07-27T21:36:22.904Z,44.10
2018-07-27T21:38:51.297Z,44.20
2018-07-27T21:41:19.743Z,44.40
2018-07-27T21:43:48.114Z,44.50
2018-07-27T21:46:16.625Z,45.60
2018-07-27T21:48:45.027Z,44.90
2018-07-27T21:51:13.402Z,45.00
2018-07-27T21:53:41.789Z,45.70
2018-07-27T21:56:10.314Z,45.30
2018-07-27T21:58:38.683Z,45.50
2018-07-27T22:01:07.186Z,45.60
2018-07-27T22:03:35.593Z,45.80
2018-07-27T22:06:04.066Z,45.80
2018-07-27T22:08:32.470Z,46.00
2018-07-27T22:11:00.886Z,46.20
2018-07-27T22:13:29.420Z,46.10
2018-07-27T22:15:57.804Z,46.40
2018-07-27T22:18:26.258Z,46.40
2018-07-27T22:20:54.633Z,46.50
2018-07-27T22:23:23.094Z,46.70
2018-07-27T22:25:51.479Z,46.80
2018-07-27T22:28:19.970Z,46.90
2018-07-27T22:30:48.342Z,47.20
2018-07-27T22:33:16.779Z,47.40
2018-07-27T22:35:45.159Z,47.30
2018-07-27T22:38:13.567Z,47.40
2018-07-27T22:40:42.031Z,47.60
2018-07-27T22:43:10.351Z,48.10
2018-07-27T22:45:38.704Z,47.60
2018-07-27T22:48:07.070Z,47.70
2018-07-27T22:50:35.446Z,47.70
2018-07-27T22:55:32.242Z,48.00
2018-07-27T22:58:00.650Z,48.20
2018-07-27T23:00:29.129Z,48.20
2018-07-27T23:02:57.566Z,48.40
2018-07-27T23:05:25.950Z,48.50
2018-07-27T23:07:54.346Z,48.30
2018-07-27T23:10:22.814Z,48.40
2018-07-27T23:12:51.262Z,48.30
2018-07-27T23:15:19.647Z,48.30
2018-07-27T23:17:48.071Z,48.60
2018-07-27T23:20:16.443Z,48.40
2018-07-27T23:22:44.850Z,48.70
2018-07-27T23:25:19.802Z,48.50
2018-07-27T23:27:48.251Z,48.70
2018-07-27T23:30:16.657Z,49.00
2018-07-27T23:32:45.068Z,49.10
2018-07-27T23:35:13.504Z,50.20
2018-07-27T23:37:41.893Z,49.90
2018-07-27T23:40:10.407Z,50.40
2018-07-27T23:42:38.820Z,50.70
2018-07-27T23:45:08.289Z,50.90
2018-07-27T23:47:36.720Z,50.80
2018-07-27T23:50:05.845Z,50.80
2018-07-27T23:52:34.227Z,50.90
2018-07-27T23:55:02.654Z,50.90
2018-07-27T23:57:31.032Z,51.60
